< < Back
Terminal Aerodrome Forecast


Current Version              Previous Versions:   1  2  3  4  5  6  7  8  9  

Terminal Aerodrome Forecast

948
FTUS44 KMRX 292326
TAFCHA
TAF
KCHA 292326Z 3000/3024 15005KT P6SM VCSH SCT050 BKN100
     FM300600 VRB03KT P6SM BKN100
     FM301800 16005KT P6SM VCSH BKN050=

Latest METAR

254
SAUS80 KWBC 300100 RRB
MTRCHA
METAR KCHA 300053Z 21006KT 10SM FEW020 SCT070 BKN160 BKN180 BKN210 26/18
A3013 RMK AO2 SLP196 T02610178


USA.gov is the U.S. government's official web portal to all federal, state and local government web resources and services.